createdAt,value
2022-12-11T00:00:05.559Z,-0.81
2022-12-11T00:00:15.583Z,-0.83
2022-12-11T00:00:25.633Z,-0.83
2022-12-11T00:00:35.638Z,-0.83
2022-12-11T00:00:45.563Z,-0.81
2022-12-11T00:00:55.654Z,-0.81
2022-12-11T00:01:05.621Z,-0.83
2022-12-11T00:01:15.567Z,-0.81
2022-12-11T00:01:25.603Z,-0.81
2022-12-11T00:01:35.587Z,-0.80
2022-12-11T00:01:45.613Z,-0.81
2022-12-11T00:01:55.676Z,-0.83
2022-12-11T00:02:05.596Z,-0.83
2022-12-11T00:02:15.590Z,-0.81
2022-12-11T00:02:25.703Z,-0.81
2022-12-11T00:02:35.631Z,-0.81
2022-12-11T00:02:45.636Z,-0.80
2022-12-11T00:02:55.690Z,-0.80
2022-12-11T00:03:05.589Z,-0.81
2022-12-11T00:03:16.422Z,-0.78
2022-12-11T00:03:25.749Z,-0.81
2022-12-11T00:03:35.574Z,-0.80
2022-12-11T00:03:45.580Z,-0.80
2022-12-11T00:03:55.655Z,-0.80
2022-12-11T00:04:05.528Z,-0.80
2022-12-11T00:04:15.552Z,-0.78
2022-12-11T00:04:25.528Z,-0.78
2022-12-11T00:04:35.611Z,-0.78
2022-12-11T00:04:45.623Z,-0.77
2022-12-11T00:04:55.637Z,-0.80
2022-12-11T00:05:05.654Z,-0.80
2022-12-11T00:05:15.657Z,-0.78
2022-12-11T00:05:25.549Z,-0.80
2022-12-11T00:05:35.639Z,-0.80
2022-12-11T00:05:45.587Z,-0.80
2022-12-11T00:05:55.571Z,-0.80
2022-12-11T00:06:05.648Z,-0.80
2022-12-11T00:06:15.619Z,-0.80
2022-12-11T00:06:25.609Z,-0.83
2022-12-11T00:06:35.572Z,-0.81
2022-12-11T00:06:45.647Z,-0.81
2022-12-11T00:06:55.627Z,-0.83
2022-12-11T00:07:05.550Z,-0.85
2022-12-11T00:07:15.538Z,-0.86
2022-12-11T00:07:25.557Z,-0.89
2022-12-11T00:07:35.556Z,-0.90
2022-12-11T00:07:45.614Z,-0.90
2022-12-11T00:07:55.569Z,-0.92
2022-12-11T00:08:05.629Z,-0.92
2022-12-11T00:08:15.651Z,-0.93
2022-12-11T00:08:25.684Z,-0.93
2022-12-11T00:08:35.564Z,-0.93
2022-12-11T00:08:45.581Z,-0.93
2022-12-11T00:08:55.592Z,-0.95
2022-12-11T00:09:05.554Z,-0.95
2022-12-11T00:09:15.562Z,-0.96
2022-12-11T00:09:25.599Z,-0.97
2022-12-11T00:09:35.528Z,-0.97
2022-12-11T00:09:45.549Z,-0.99
2022-12-11T00:09:55.645Z,-1.00
2022-12-11T00:10:05.534Z,-1.00
2022-12-11T00:10:15.642Z,-1.03
2022-12-11T00:10:25.583Z,-1.02
2022-12-11T00:10:38.020Z,-1.05
2022-12-11T00:10:45.649Z,-1.07
2022-12-11T00:10:55.554Z,-1.08
2022-12-11T00:11:05.577Z,-1.08
2022-12-11T00:11:15.525Z,-1.11
2022-12-11T00:11:25.629Z,-1.10
2022-12-11T00:11:35.579Z,-1.11
2022-12-11T00:11:45.553Z,-1.13
2022-12-11T00:11:55.537Z,-1.14
2022-12-11T00:12:05.524Z,-1.13
2022-12-11T00:12:15.556Z,-1.15
2022-12-11T00:12:25.534Z,-1.15
2022-12-11T00:12:35.543Z,-1.17
2022-12-11T00:12:45.528Z,-1.18
2022-12-11T00:12:55.640Z,-1.18
2022-12-11T00:13:05.648Z,-1.20
2022-12-11T00:13:15.524Z,-1.21
2022-12-11T00:13:25.530Z,-1.20
2022-12-11T00:13:35.638Z,-1.20
2022-12-11T00:13:45.644Z,-1.20
2022-12-11T00:13:55.654Z,-1.21
2022-12-11T00:14:05.548Z,-1.21
2022-12-11T00:14:15.558Z,-1.21
2022-12-11T00:14:25.658Z,-1.20
2022-12-11T00:14:35.544Z,-1.20
2022-12-11T00:14:45.617Z,-1.18
2022-12-11T00:14:55.607Z,-1.20
2022-12-11T00:15:05.592Z,-1.20
2022-12-11T00:15:15.614Z,-1.20
2022-12-11T00:15:25.619Z,-1.18
2022-12-11T00:15:35.594Z,-1.18
2022-12-11T00:15:45.633Z,-1.18
2022-12-11T00:15:55.555Z,-1.18
2022-12-11T00:16:05.655Z,-1.17
2022-12-11T00:16:15.713Z,-1.17
2022-12-11T00:16:27.235Z,-1.17
2022-12-11T00:16:35.639Z,-1.17
2022-12-11T00:16:45.624Z,-1.18
2022-12-11T00:16:55.599Z,-1.20
2022-12-11T00:17:05.647Z,-1.18
2022-12-11T00:17:15.578Z,-1.20
2022-12-11T00:17:25.635Z,-1.21
2022-12-11T00:17:35.657Z,-1.21
2022-12-11T00:17:45.561Z,-1.23
2022-12-11T00:18:00.519Z,-1.26
2022-12-11T00:18:05.657Z,-1.25
2022-12-11T00:18:15.525Z,-1.25
2022-12-11T00:18:25.531Z,-1.28
2022-12-11T00:18:35.624Z,-1.28
2022-12-11T00:18:45.658Z,-1.29
2022-12-11T00:18:55.565Z,-1.26
2022-12-11T00:19:05.577Z,-1.28
2022-12-11T00:19:15.568Z,-1.29
2022-12-11T00:19:25.604Z,-1.29
2022-12-11T00:19:35.630Z,-1.29
2022-12-11T00:19:45.577Z,-1.29
2022-12-11T00:19:55.656Z,-1.28
2022-12-11T00:20:05.552Z,-1.29
2022-12-11T00:20:15.537Z,-1.29
2022-12-11T00:20:25.656Z,-1.31
2022-12-11T00:20:35.658Z,-1.29
2022-12-11T00:20:45.579Z,-1.28
2022-12-11T00:20:55.560Z,-1.29
2022-12-11T00:21:05.539Z,-1.28
2022-12-11T00:21:15.549Z,-1.28
2022-12-11T00:21:25.558Z,-1.28
2022-12-11T00:21:35.638Z,-1.26
2022-12-11T00:21:45.541Z,-1.26
2022-12-11T00:21:55.626Z,-1.26
2022-12-11T00:22:05.574Z,-1.25
2022-12-11T00:22:15.601Z,-1.23
2022-12-11T00:22:25.645Z,-1.21
2022-12-11T00:22:35.668Z,-1.18
2022-12-11T00:22:45.545Z,-1.20
2022-12-11T00:22:55.640Z,-1.17
2022-12-11T00:23:05.554Z,-1.17
2022-12-11T00:23:15.649Z,-1.14
2022-12-11T00:23:25.567Z,-1.15
2022-12-11T00:23:35.648Z,-1.14
2022-12-11T00:23:45.525Z,-1.11
2022-12-11T00:23:55.645Z,-1.11
2022-12-11T00:24:05.622Z,-1.13
2022-12-11T00:24:15.524Z,-1.11
2022-12-11T00:24:25.524Z,-1.11
2022-12-11T00:24:35.660Z,-1.10
2022-12-11T00:24:45.544Z,-1.10
2022-12-11T00:24:55.618Z,-1.10
2022-12-11T00:25:05.607Z,-1.10
2022-12-11T00:25:15.534Z,-1.08
2022-12-11T00:25:25.648Z,-1.08
2022-12-11T00:25:35.535Z,-1.08
2022-12-11T00:25:45.648Z,-1.05
2022-12-11T00:25:55.660Z,-1.07
2022-12-11T00:26:05.626Z,-1.05
2022-12-11T00:26:15.552Z,-1.05
2022-12-11T00:26:25.525Z,-1.03
2022-12-11T00:26:35.644Z,-1.05
2022-12-11T00:26:45.600Z,-1.03
2022-12-11T00:26:55.620Z,-1.03
2022-12-11T00:27:05.601Z,-1.02
2022-12-11T00:27:15.575Z,-1.02
2022-12-11T00:27:25.597Z,-1.03
2022-12-11T00:27:35.554Z,-1.00
2022-12-11T00:27:45.643Z,-1.00
2022-12-11T00:27:56.167Z,-1.00
2022-12-11T00:28:05.653Z,-1.00
2022-12-11T00:28:15.655Z,-0.99
2022-12-11T00:28:25.635Z,-1.00
2022-12-11T00:28:35.618Z,-0.99
2022-12-11T00:28:45.598Z,-0.99
2022-12-11T00:28:55.554Z,-1.00
2022-12-11T00:29:05.525Z,-0.99
2022-12-11T00:29:15.554Z,-1.00
2022-12-11T00:29:25.650Z,-0.99
2022-12-11T00:29:35.572Z,-0.97
2022-12-11T00:29:45.666Z,-0.99
2022-12-11T00:29:55.568Z,-0.97
2022-12-11T00:30:05.561Z,-0.97
2022-12-11T00:30:15.623Z,-0.97
2022-12-11T00:30:25.541Z,-0.97
2022-12-11T00:30:35.655Z,-0.96
2022-12-11T00:30:45.612Z,-0.96
2022-12-11T00:30:55.600Z,-0.96
2022-12-11T00:31:05.554Z,-0.96
2022-12-11T00:31:15.643Z,-0.95
2022-12-11T00:31:25.680Z,-0.95
2022-12-11T00:31:35.684Z,-0.95
2022-12-11T00:31:45.642Z,-0.95
2022-12-11T00:31:55.718Z,-0.95
2022-12-11T00:32:05.581Z,-0.96
2022-12-11T00:32:15.593Z,-0.95
2022-12-11T00:32:28.213Z,-0.93
2022-12-11T00:32:37.707Z,-0.95
2022-12-11T00:32:45.548Z,-0.95
2022-12-11T00:32:55.554Z,-0.95
2022-12-11T00:33:05.635Z,-0.95
2022-12-11T00:33:15.575Z,-0.95
2022-12-11T00:33:25.648Z,-0.95
2022-12-11T00:33:35.577Z,-0.93
2022-12-11T00:33:45.551Z,-0.95
2022-12-11T00:33:55.618Z,-0.93
2022-12-11T00:34:05.636Z,-0.93
2022-12-11T00:34:15.600Z,-0.93
2022-12-11T00:34:25.647Z,-0.93
2022-12-11T00:34:35.659Z,-0.92
2022-12-11T00:34:45.579Z,-0.92
2022-12-11T00:34:55.648Z,-0.92
2022-12-11T00:35:05.612Z,-0.90
2022-12-11T00:35:15.555Z,-0.90
2022-12-11T00:35:25.521Z,-0.90
2022-12-11T00:35:35.650Z,-0.89
2022-12-11T00:35:45.534Z,-0.86
2022-12-11T00:35:55.537Z,-0.86
2022-12-11T00:36:05.579Z,-0.89
2022-12-11T00:36:15.594Z,-0.86
2022-12-11T00:36:25.540Z,-0.86
2022-12-11T00:36:35.566Z,-0.85
2022-12-11T00:36:45.534Z,-0.85
2022-12-11T00:36:55.564Z,-0.85
2022-12-11T00:37:05.597Z,-0.86
2022-12-11T00:37:15.602Z,-0.85
2022-12-11T00:37:25.632Z,-0.86
2022-12-11T00:37:35.618Z,-0.86
2022-12-11T00:37:45.574Z,-0.85
2022-12-11T00:37:56.173Z,-0.85
2022-12-11T00:38:05.550Z,-0.83
2022-12-11T00:38:15.554Z,-0.85
2022-12-11T00:38:25.530Z,-0.85
2022-12-11T00:38:35.588Z,-0.85
2022-12-11T00:38:45.607Z,-0.85
2022-12-11T00:38:55.526Z,-0.85
2022-12-11T00:39:05.541Z,-0.83
2022-12-11T00:39:15.591Z,-0.85
2022-12-11T00:39:25.547Z,-0.85
2022-12-11T00:39:35.615Z,-0.86
2022-12-11T00:39:45.575Z,-0.86
2022-12-11T00:39:55.680Z,-0.86
2022-12-11T00:40:05.539Z,-0.86
2022-12-11T00:40:15.546Z,-0.89
2022-12-11T00:40:25.559Z,-0.89
2022-12-11T00:40:35.564Z,-0.90
2022-12-11T00:40:45.570Z,-0.90
2022-12-11T00:40:55.643Z,-0.90
2022-12-11T00:41:05.655Z,-0.90
2022-12-11T00:41:15.628Z,-0.92
2022-12-11T00:41:25.535Z,-0.92
2022-12-11T00:41:35.558Z,-0.92
2022-12-11T00:41:45.615Z,-0.92
2022-12-11T00:41:55.635Z,-0.93
2022-12-11T00:42:05.635Z,-0.93
2022-12-11T00:42:15.541Z,-0.93
2022-12-11T00:42:25.558Z,-0.92
2022-12-11T00:42:35.614Z,-0.95
2022-12-11T00:42:45.621Z,-0.95
2022-12-11T00:42:55.612Z,-0.96
2022-12-11T00:43:05.538Z,-0.95
2022-12-11T00:43:15.569Z,-0.97
2022-12-11T00:43:25.540Z,-0.96
2022-12-11T00:43:35.564Z,-0.96
2022-12-11T00:43:45.550Z,-0.97
2022-12-11T00:43:55.523Z,-0.99
2022-12-11T00:44:05.581Z,-0.99
2022-12-11T00:44:15.602Z,-1.00
2022-12-11T00:44:25.567Z,-1.00
2022-12-11T00:44:35.624Z,-1.00
2022-12-11T00:44:45.609Z,-1.02
2022-12-11T00:44:55.604Z,-1.02
2022-12-11T00:45:05.524Z,-1.02
2022-12-11T00:45:15.618Z,-1.02
2022-12-11T00:45:25.591Z,-1.03
2022-12-11T00:45:35.662Z,-1.03
2022-12-11T00:45:45.687Z,-1.03
2022-12-11T00:45:55.679Z,-1.02
2022-12-11T00:46:05.628Z,-1.03
2022-12-11T00:46:15.669Z,-1.02
2022-12-11T00:46:25.675Z,-1.02
2022-12-11T00:46:35.642Z,-1.03
2022-12-11T00:46:45.600Z,-1.02
2022-12-11T00:46:55.562Z,-1.02
2022-12-11T00:47:05.560Z,-1.03
2022-12-11T00:47:15.528Z,-1.00
2022-12-11T00:47:25.598Z,-1.00
2022-12-11T00:47:35.610Z,-1.03
2022-12-11T00:47:45.587Z,-1.00
2022-12-11T00:47:58.526Z,-1.02
2022-12-11T00:48:05.629Z,-1.02
2022-12-11T00:48:15.609Z,-1.02
2022-12-11T00:48:25.627Z,-1.02
2022-12-11T00:48:35.634Z,-1.02
2022-12-11T00:48:45.642Z,-1.02
2022-12-11T00:48:55.608Z,-1.02
2022-12-11T00:49:05.528Z,-1.03
2022-12-11T00:49:15.577Z,-1.05
2022-12-11T00:49:25.647Z,-1.07
2022-12-11T00:49:35.599Z,-1.08
2022-12-11T00:49:49.770Z,-1.08
2022-12-11T00:49:58.116Z,-1.10
2022-12-11T00:50:05.531Z,-1.10
2022-12-11T00:50:15.600Z,-1.10
2022-12-11T00:50:25.611Z,-1.10
2022-12-11T00:50:35.547Z,-1.13
2022-12-11T00:50:45.548Z,-1.13
2022-12-11T00:50:55.567Z,-1.14
2022-12-11T00:51:05.639Z,-1.13
2022-12-11T00:51:15.648Z,-1.14
2022-12-11T00:51:25.620Z,-1.15
2022-12-11T00:51:35.557Z,-1.15
2022-12-11T00:51:45.651Z,-1.15
2022-12-11T00:51:55.600Z,-1.18
2022-12-11T00:52:05.552Z,-1.18
2022-12-11T00:52:15.622Z,-1.20
2022-12-11T00:52:25.565Z,-1.21
2022-12-11T00:52:35.607Z,-1.25
2022-12-11T00:52:45.540Z,-1.25
2022-12-11T00:52:55.573Z,-1.26
2022-12-11T00:53:05.624Z,-1.26
2022-12-11T00:53:15.538Z,-1.26
2022-12-11T00:53:25.540Z,-1.28
2022-12-11T00:53:35.603Z,-1.28
2022-12-11T00:53:45.647Z,-1.29
2022-12-11T00:53:55.530Z,-1.29
2022-12-11T00:54:05.552Z,-1.29
2022-12-11T00:54:15.531Z,-1.31
2022-12-11T00:54:25.611Z,-1.31
2022-12-11T00:54:35.550Z,-1.29
2022-12-11T00:54:45.537Z,-1.29
2022-12-11T00:54:55.572Z,-1.28
2022-12-11T00:55:05.611Z,-1.32
2022-12-11T00:55:15.575Z,-1.29
2022-12-11T00:55:25.536Z,-1.29
2022-12-11T00:55:35.651Z,-1.29
2022-12-11T00:55:45.656Z,-1.29
2022-12-11T00:55:55.652Z,-1.29
2022-12-11T00:56:05.555Z,-1.29
2022-12-11T00:56:15.582Z,-1.28
2022-12-11T00:56:25.602Z,-1.28
2022-12-11T00:56:35.581Z,-1.29
2022-12-11T00:56:45.585Z,-1.28
2022-12-11T00:56:55.656Z,-1.28
2022-12-11T00:57:05.543Z,-1.28
2022-12-11T00:57:15.613Z,-1.28
2022-12-11T00:57:25.638Z,-1.26
2022-12-11T00:57:35.574Z,-1.26
2022-12-11T00:57:45.640Z,-1.26
2022-12-11T00:57:55.667Z,-1.26
2022-12-11T00:58:05.567Z,-1.26
2022-12-11T00:58:15.645Z,-1.25
2022-12-11T00:58:25.616Z,-1.26
2022-12-11T00:58:35.546Z,-1.25
2022-12-11T00:58:45.576Z,-1.25
2022-12-11T00:58:55.648Z,-1.23
2022-12-11T00:59:05.556Z,-1.25
2022-12-11T00:59:15.549Z,-1.23
2022-12-11T00:59:25.544Z,-1.23
2022-12-11T00:59:35.651Z,-1.21
2022-12-11T00:59:45.523Z,-1.21
2022-12-11T00:59:55.602Z,-1.21
2022-12-11T01:00:05.588Z,-1.20
2022-12-11T01:00:15.544Z,-1.20
2022-12-11T01:00:25.593Z,-1.20
2022-12-11T01:00:35.586Z,-1.20
2022-12-11T01:00:45.609Z,-1.18
2022-12-11T01:00:55.570Z,-1.18
2022-12-11T01:01:05.649Z,-1.20
2022-12-11T01:01:15.654Z,-1.20
2022-12-11T01:01:25.665Z,-1.21
2022-12-11T01:01:35.666Z,-1.20
2022-12-11T01:01:45.583Z,-1.21
2022-12-11T01:01:55.538Z,-1.21
2022-12-11T01:02:05.650Z,-1.21
2022-12-11T01:02:15.604Z,-1.23
2022-12-11T01:02:25.729Z,-1.21
2022-12-11T01:02:35.713Z,-1.21
2022-12-11T01:02:45.655Z,-1.21
2022-12-11T01:02:55.667Z,-1.21
2022-12-11T01:03:05.556Z,-1.21
2022-12-11T01:03:15.651Z,-1.21
2022-12-11T01:03:25.638Z,-1.23
2022-12-11T01:03:35.570Z,-1.21
2022-12-11T01:03:45.572Z,-1.23
2022-12-11T01:03:55.628Z,-1.23
2022-12-11T01:04:05.583Z,-1.23
2022-12-11T01:04:15.629Z,-1.25
2022-12-11T01:04:25.644Z,-1.26
2022-12-11T01:04:35.549Z,-1.28
2022-12-11T01:04:45.637Z,-1.28
2022-12-11T01:04:55.551Z,-1.29
2022-12-11T01:05:05.577Z,-1.29
2022-12-11T01:05:15.525Z,-1.29
2022-12-11T01:05:25.652Z,-1.31
2022-12-11T01:05:35.545Z,-1.28
2022-12-11T01:05:45.573Z,-1.29
2022-12-11T01:05:55.583Z,-1.26
2022-12-11T01:06:05.570Z,-1.25
2022-12-11T01:06:15.654Z,-1.23
2022-12-11T01:06:25.541Z,-1.25
2022-12-11T01:06:35.575Z,-1.25
2022-12-11T01:06:45.644Z,-1.23
2022-12-11T01:06:55.565Z,-1.23
2022-12-11T01:07:05.627Z,-1.25
2022-12-11T01:07:15.659Z,-1.23
2022-12-11T01:07:25.585Z,-1.21
2022-12-11T01:07:35.617Z,-1.23
2022-12-11T01:07:45.697Z,-1.23
2022-12-11T01:07:56.207Z,-1.23
2022-12-11T01:08:05.703Z,-1.25
2022-12-11T01:08:15.730Z,-1.26
2022-12-11T01:08:25.689Z,-1.25
2022-12-11T01:08:38.743Z,-1.23
2022-12-11T01:08:45.644Z,-1.25
2022-12-11T01:08:55.538Z,-1.23
2022-12-11T01:09:05.660Z,-1.25
2022-12-11T01:09:15.555Z,-1.25
2022-12-11T01:09:25.646Z,-1.23
2022-12-11T01:09:35.635Z,-1.26
2022-12-11T01:09:45.605Z,-1.23
2022-12-11T01:09:55.568Z,-1.23
2022-12-11T01:10:05.630Z,-1.25
2022-12-11T01:10:15.640Z,-1.23
2022-12-11T01:10:25.760Z,-1.21
2022-12-11T01:10:35.599Z,-1.21
2022-12-11T01:10:45.626Z,-1.21
2022-12-11T01:10:55.639Z,-1.20
2022-12-11T01:11:05.655Z,-1.21
2022-12-11T01:11:15.586Z,-1.21
2022-12-11T01:11:25.585Z,-1.20
2022-12-11T01:11:35.538Z,-1.20
2022-12-11T01:11:45.534Z,-1.20
2022-12-11T01:11:55.606Z,-1.21
2022-12-11T01:12:05.565Z,-1.20
2022-12-11T01:12:15.619Z,-1.20
2022-12-11T01:12:25.569Z,-1.20
2022-12-11T01:12:35.568Z,-1.18
2022-12-11T01:12:45.587Z,-1.20
2022-12-11T01:12:55.649Z,-1.18
2022-12-11T01:13:05.573Z,-1.18
2022-12-11T01:13:15.621Z,-1.18
2022-12-11T01:13:25.658Z,-1.17
2022-12-11T01:13:35.580Z,-1.17
2022-12-11T01:13:45.526Z,-1.17
2022-12-11T01:13:55.646Z,-1.17
2022-12-11T01:14:05.650Z,-1.17
2022-12-11T01:14:15.596Z,-1.17
2022-12-11T01:14:25.540Z,-1.15
2022-12-11T01:14:35.593Z,-1.17
2022-12-11T01:14:45.650Z,-1.17
2022-12-11T01:14:55.658Z,-1.15
2022-12-11T01:15:05.597Z,-1.17
2022-12-11T01:15:15.545Z,-1.17
2022-12-11T01:15:25.606Z,-1.15
2022-12-11T01:15:41.099Z,-1.15
2022-12-11T01:15:45.575Z,-1.15
2022-12-11T01:15:55.583Z,-1.15
2022-12-11T01:16:05.653Z,-1.15
2022-12-11T01:16:15.705Z,-1.14
2022-12-11T01:16:25.611Z,-1.14
2022-12-11T01:16:35.650Z,-1.14
2022-12-11T01:16:45.633Z,-1.13
2022-12-11T01:16:55.641Z,-1.14
2022-12-11T01:17:05.645Z,-1.14
2022-12-11T01:17:15.542Z,-1.14
2022-12-11T01:17:25.575Z,-1.14
2022-12-11T01:17:35.525Z,-1.14
2022-12-11T01:17:45.607Z,-1.15
2022-12-11T01:17:55.652Z,-1.14
2022-12-11T01:18:05.604Z,-1.14
2022-12-11T01:18:15.571Z,-1.15
2022-12-11T01:18:25.619Z,-1.15
2022-12-11T01:18:35.606Z,-1.14
2022-12-11T01:18:45.621Z,-1.15
2022-12-11T01:18:55.548Z,-1.15
2022-12-11T01:19:05.559Z,-1.15
2022-12-11T01:19:15.627Z,-1.17
2022-12-11T01:19:25.536Z,-1.15
2022-12-11T01:19:35.602Z,-1.15
2022-12-11T01:19:45.658Z,-1.15
2022-12-11T01:19:55.636Z,-1.14
2022-12-11T01:20:05.626Z,-1.14
2022-12-11T01:20:15.553Z,-1.13
2022-12-11T01:20:25.648Z,-1.14
2022-12-11T01:20:35.538Z,-1.14
2022-12-11T01:20:45.637Z,-1.14
2022-12-11T01:20:55.628Z,-1.13
2022-12-11T01:21:05.588Z,-1.13
2022-12-11T01:21:15.537Z,-1.14
2022-12-11T01:21:25.633Z,-1.11
2022-12-11T01:21:35.618Z,-1.11
2022-12-11T01:21:45.625Z,-1.13
2022-12-11T01:21:55.639Z,-1.11
2022-12-11T01:22:05.565Z,-1.11
2022-12-11T01:22:15.645Z,-1.11
2022-12-11T01:22:25.574Z,-1.10
2022-12-11T01:22:35.617Z,-1.10
2022-12-11T01:22:45.530Z,-1.11
2022-12-11T01:22:55.609Z,-1.11
2022-12-11T01:23:05.542Z,-1.08
2022-12-11T01:23:15.573Z,-1.11
2022-12-11T01:23:25.587Z,-1.11
2022-12-11T01:23:35.537Z,-1.11
2022-12-11T01:23:45.537Z,-1.11
2022-12-11T01:23:55.592Z,-1.11
2022-12-11T01:24:05.609Z,-1.11
2022-12-11T01:24:15.648Z,-1.13
2022-12-11T01:24:25.591Z,-1.13
2022-12-11T01:24:35.612Z,-1.11
2022-12-11T01:24:45.620Z,-1.11
2022-12-11T01:24:55.621Z,-1.11
2022-12-11T01:25:05.551Z,-1.13
2022-12-11T01:25:15.556Z,-1.13
2022-12-11T01:25:25.645Z,-1.11
2022-12-11T01:25:35.567Z,-1.11
2022-12-11T01:25:45.579Z,-1.11
2022-12-11T01:25:55.540Z,-1.11
2022-12-11T01:26:05.581Z,-1.10
2022-12-11T01:26:15.616Z,-1.08
2022-12-11T01:26:25.598Z,-1.08
2022-12-11T01:26:35.582Z,-1.08
2022-12-11T01:26:45.669Z,-1.07
2022-12-11T01:26:55.601Z,-1.08
2022-12-11T01:27:05.596Z,-1.07
2022-12-11T01:27:15.537Z,-1.05
2022-12-11T01:27:25.622Z,-1.03
2022-12-11T01:27:35.645Z,-1.05
2022-12-11T01:27:45.626Z,-1.03
2022-12-11T01:27:56.169Z,-1.03
2022-12-11T01:28:05.637Z,-1.03
2022-12-11T01:28:15.661Z,-1.03
2022-12-11T01:28:25.609Z,-1.03
2022-12-11T01:28:35.658Z,-1.03
2022-12-11T01:28:45.557Z,-1.03
2022-12-11T01:28:55.553Z,-1.02
2022-12-11T01:29:05.593Z,-1.02
2022-12-11T01:29:15.522Z,-1.02
2022-12-11T01:29:25.594Z,-1.02
2022-12-11T01:29:35.595Z,-1.02
2022-12-11T01:29:45.528Z,-1.00
2022-12-11T01:29:55.602Z,-1.00
2022-12-11T01:30:05.590Z,-1.02
2022-12-11T01:30:15.593Z,-0.99
2022-12-11T01:30:25.602Z,-0.99
2022-12-11T01:30:35.591Z,-0.99
2022-12-11T01:30:45.763Z,-0.97
2022-12-11T01:30:55.669Z,-0.99
2022-12-11T01:31:05.667Z,-1.00
2022-12-11T01:31:15.609Z,-1.00
2022-12-11T01:31:25.585Z,-0.99
2022-12-11T01:31:35.633Z,-0.99
2022-12-11T01:31:45.650Z,-1.00
2022-12-11T01:31:55.558Z,-0.99
2022-12-11T01:32:05.590Z,-1.00
2022-12-11T01:32:15.579Z,-1.02
2022-12-11T01:32:25.582Z,-1.02
2022-12-11T01:32:35.563Z,-1.00
2022-12-11T01:32:45.532Z,-1.02
2022-12-11T01:32:55.561Z,-1.02
2022-12-11T01:33:05.589Z,-1.02
2022-12-11T01:33:15.579Z,-1.03
2022-12-11T01:33:25.581Z,-1.03
2022-12-11T01:33:35.645Z,-1.02
2022-12-11T01:33:45.666Z,-1.02
2022-12-11T01:33:55.617Z,-1.02
2022-12-11T01:34:05.640Z,-1.03
2022-12-11T01:34:15.560Z,-1.02
2022-12-11T01:34:25.538Z,-1.03
2022-12-11T01:34:35.526Z,-1.03
2022-12-11T01:34:45.554Z,-1.03
2022-12-11T01:34:55.614Z,-1.05
2022-12-11T01:35:05.594Z,-1.05
2022-12-11T01:35:15.635Z,-1.07
2022-12-11T01:35:25.647Z,-1.07
2022-12-11T01:35:35.610Z,-1.05
2022-12-11T01:35:45.590Z,-1.05
2022-12-11T01:35:55.568Z,-1.07
2022-12-11T01:36:05.542Z,-1.07
2022-12-11T01:36:15.594Z,-1.07
2022-12-11T01:36:25.651Z,-1.08
2022-12-11T01:36:35.647Z,-1.10
2022-12-11T01:36:45.548Z,-1.10
2022-12-11T01:36:55.681Z,-1.10
2022-12-11T01:37:05.659Z,-1.10
2022-12-11T01:37:15.629Z,-1.11
2022-12-11T01:37:25.559Z,-1.10
2022-12-11T01:37:35.596Z,-1.11
2022-12-11T01:37:45.592Z,-1.11
2022-12-11T01:37:55.546Z,-1.10
2022-12-11T01:38:05.592Z,-1.10
2022-12-11T01:38:15.563Z,-1.11
2022-12-11T01:38:25.532Z,-1.11
2022-12-11T01:38:35.554Z,-1.10
2022-12-11T01:38:45.625Z,-1.10
2022-12-11T01:38:55.647Z,-1.11
2022-12-11T01:39:05.550Z,-1.10
2022-12-11T01:39:15.603Z,-1.11
2022-12-11T01:39:25.654Z,-1.11
2022-12-11T01:39:35.559Z,-1.11
2022-12-11T01:39:45.560Z,-1.11
2022-12-11T01:39:55.626Z,-1.11
2022-12-11T01:40:05.595Z,-1.10
2022-12-11T01:40:15.615Z,-1.11
2022-12-11T01:40:25.635Z,-1.11
2022-12-11T01:40:35.541Z,-1.11
2022-12-11T01:40:45.568Z,-1.13
2022-12-11T01:40:55.631Z,-1.13
2022-12-11T01:41:05.652Z,-1.14
2022-12-11T01:41:15.584Z,-1.14
2022-12-11T01:41:25.595Z,-1.15
2022-12-11T01:41:35.632Z,-1.17
2022-12-11T01:41:45.579Z,-1.18
2022-12-11T01:41:55.561Z,-1.18
2022-12-11T01:42:05.570Z,-1.21
2022-12-11T01:42:15.567Z,-1.21
2022-12-11T01:42:25.573Z,-1.21
2022-12-11T01:42:35.591Z,-1.21
2022-12-11T01:42:45.586Z,-1.25
2022-12-11T01:42:55.608Z,-1.25
2022-12-11T01:43:05.610Z,-1.25
2022-12-11T01:43:15.526Z,-1.23
2022-12-11T01:43:25.539Z,-1.25
2022-12-11T01:43:35.657Z,-1.25
2022-12-11T01:43:45.573Z,-1.25
2022-12-11T01:43:55.523Z,-1.26
2022-12-11T01:44:05.561Z,-1.28
2022-12-11T01:44:15.649Z,-1.29
2022-12-11T01:44:25.580Z,-1.29
2022-12-11T01:44:35.546Z,-1.29
2022-12-11T01:44:45.525Z,-1.32
2022-12-11T01:44:55.566Z,-1.32
2022-12-11T01:45:05.652Z,-1.33
2022-12-11T01:45:15.654Z,-1.32
2022-12-11T01:45:27.119Z,-1.33
2022-12-11T01:45:35.585Z,-1.33
2022-12-11T01:45:45.550Z,-1.33
2022-12-11T01:45:55.678Z,-1.33
2022-12-11T01:46:05.672Z,-1.33
2022-12-11T01:46:15.608Z,-1.33
2022-12-11T01:46:25.683Z,-1.32
2022-12-11T01:46:35.655Z,-1.32
2022-12-11T01:46:45.588Z,-1.32
2022-12-11T01:46:55.540Z,-1.31
2022-12-11T01:47:05.544Z,-1.31
2022-12-11T01:47:15.644Z,-1.31
2022-12-11T01:47:25.596Z,-1.29
2022-12-11T01:47:35.640Z,-1.31
2022-12-11T01:47:45.565Z,-1.32
2022-12-11T01:47:55.550Z,-1.29
2022-12-11T01:48:05.589Z,-1.31
2022-12-11T01:48:15.605Z,-1.28
2022-12-11T01:48:25.615Z,-1.28
2022-12-11T01:48:40.681Z,-1.28
2022-12-11T01:48:45.543Z,-1.26
2022-12-11T01:48:55.571Z,-1.25
2022-12-11T01:49:05.604Z,-1.23
2022-12-11T01:49:15.610Z,-1.23
2022-12-11T01:49:25.580Z,-1.25
2022-12-11T01:49:35.590Z,-1.25
2022-12-11T01:49:45.544Z,-1.26
2022-12-11T01:49:55.562Z,-1.25
2022-12-11T01:50:05.626Z,-1.26
2022-12-11T01:50:15.579Z,-1.28
2022-12-11T01:50:25.656Z,-1.29
2022-12-11T01:50:35.658Z,-1.31
2022-12-11T01:50:45.533Z,-1.31
2022-12-11T01:50:55.553Z,-1.29
2022-12-11T01:51:05.525Z,-1.31
2022-12-11T01:51:15.605Z,-1.31
2022-12-11T01:51:25.535Z,-1.33
2022-12-11T01:51:35.538Z,-1.33
2022-12-11T01:51:45.666Z,-1.33
2022-12-11T01:51:55.522Z,-1.33
2022-12-11T01:52:05.656Z,-1.35
2022-12-11T01:52:15.544Z,-1.36
2022-12-11T01:52:25.553Z,-1.35
2022-12-11T01:52:35.622Z,-1.36
2022-12-11T01:52:45.539Z,-1.36
2022-12-11T01:52:55.586Z,-1.35
2022-12-11T01:53:05.578Z,-1.36
2022-12-11T01:53:15.604Z,-1.36
2022-12-11T01:53:25.657Z,-1.36
2022-12-11T01:53:35.571Z,-1.35
2022-12-11T01:53:45.566Z,-1.35
2022-12-11T01:53:55.526Z,-1.35
2022-12-11T01:54:05.583Z,-1.36
2022-12-11T01:54:15.647Z,-1.33
2022-12-11T01:54:25.555Z,-1.33
2022-12-11T01:54:35.531Z,-1.32
2022-12-11T01:54:45.604Z,-1.32
2022-12-11T01:54:55.555Z,-1.31
2022-12-11T01:55:05.659Z,-1.29
2022-12-11T01:55:15.650Z,-1.29
2022-12-11T01:55:25.638Z,-1.28
2022-12-11T01:55:35.572Z,-1.28
2022-12-11T01:55:45.633Z,-1.26
2022-12-11T01:55:55.557Z,-1.25
2022-12-11T01:56:05.541Z,-1.25
2022-12-11T01:56:15.640Z,-1.23
2022-12-11T01:56:25.624Z,-1.23
2022-12-11T01:56:35.578Z,-1.23
2022-12-11T01:56:45.570Z,-1.21
2022-12-11T01:56:55.534Z,-1.21
2022-12-11T01:57:05.624Z,-1.21
2022-12-11T01:57:15.616Z,-1.23
2022-12-11T01:57:25.523Z,-1.23
2022-12-11T01:57:35.616Z,-1.21
2022-12-11T01:57:45.656Z,-1.23
2022-12-11T01:58:00.512Z,-1.26
2022-12-11T01:58:05.634Z,-1.25
2022-12-11T01:58:15.528Z,-1.25
2022-12-11T01:58:28.230Z,-1.28
2022-12-11T01:58:35.637Z,-1.26
2022-12-11T01:58:45.658Z,-1.26
2022-12-11T01:58:55.630Z,-1.28
2022-12-11T01:59:05.533Z,-1.28
2022-12-11T01:59:15.534Z,-1.29
2022-12-11T01:59:25.561Z,-1.29
2022-12-11T01:59:35.585Z,-1.29
2022-12-11T01:59:45.559Z,-1.29
2022-12-11T01:59:55.543Z,-1.29
2022-12-11T02:00:05.600Z,-1.28
2022-12-11T02:00:15.627Z,-1.29
2022-12-11T02:00:25.590Z,-1.29
2022-12-11T02:00:35.526Z,-1.29
2022-12-11T02:00:45.638Z,-1.31
2022-12-11T02:00:55.677Z,-1.29
2022-12-11T02:01:05.658Z,-1.31
2022-12-11T02:01:15.697Z,-1.31
2022-12-11T02:01:25.694Z,-1.31
2022-12-11T02:01:35.598Z,-1.31
2022-12-11T02:01:45.613Z,-1.29
2022-12-11T02:01:55.604Z,-1.28
2022-12-11T02:02:05.713Z,-1.26
2022-12-11T02:02:15.603Z,-1.26
2022-12-11T02:02:25.569Z,-1.25
2022-12-11T02:02:35.611Z,-1.25
2022-12-11T02:02:45.729Z,-1.25
2022-12-11T02:02:55.680Z,-1.25
2022-12-11T02:03:05.643Z,-1.21
2022-12-11T02:03:15.527Z,-1.23
2022-12-11T02:03:25.592Z,-1.21
2022-12-11T02:03:35.528Z,-1.21
2022-12-11T02:03:45.637Z,-1.21
2022-12-11T02:03:55.639Z,-1.20
2022-12-11T02:04:05.646Z,-1.18
2022-12-11T02:04:15.543Z,-1.18
2022-12-11T02:04:25.560Z,-1.18
2022-12-11T02:04:35.641Z,-1.20
2022-12-11T02:04:45.558Z,-1.18
2022-12-11T02:04:55.578Z,-1.18
2022-12-11T02:05:05.634Z,-1.18
2022-12-11T02:05:15.624Z,-1.20
2022-12-11T02:05:25.602Z,-1.20
2022-12-11T02:05:35.538Z,-1.18
2022-12-11T02:05:45.597Z,-1.18
2022-12-11T02:05:55.624Z,-1.20
2022-12-11T02:06:05.559Z,-1.20
2022-12-11T02:06:15.637Z,-1.18
2022-12-11T02:06:25.601Z,-1.20
2022-12-11T02:06:35.648Z,-1.21
2022-12-11T02:06:45.546Z,-1.21
2022-12-11T02:06:55.546Z,-1.23
2022-12-11T02:07:05.584Z,-1.23
2022-12-11T02:07:15.581Z,-1.25
2022-12-11T02:07:25.572Z,-1.23
2022-12-11T02:07:35.525Z,-1.23
2022-12-11T02:07:45.660Z,-1.25
2022-12-11T02:08:00.569Z,-1.25
2022-12-11T02:08:05.705Z,-1.25
2022-12-11T02:08:15.568Z,-1.25
2022-12-11T02:08:25.579Z,-1.25
2022-12-11T02:08:35.535Z,-1.25
2022-12-11T02:08:45.540Z,-1.25